Actual water levels and discharges of Morava river

Lanžhot

Date and time (UTC) H (cm) Q (m³/s)
20. 7. 2024 04:00 42 23
20. 7. 2024 03:00 42 23
20. 7. 2024 02:00 42 23
20. 7. 2024 01:00 41 23
20. 7. 2024 00:00 41 23
19. 7. 2024 23:00 37 21
19. 7. 2024 22:00 35 20
19. 7. 2024 21:00 32 19
19. 7. 2024 20:00 31 18
19. 7. 2024 19:00 691 -
19. 7. 2024 18:00 692 -
19. 7. 2024 17:00 36 20
19. 7. 2024 16:00 39 22

H - water level, Q - discharge

Strážnice

Date and time (UTC) H (cm) Q (m³/s)
20. 7. 2024 04:00 114 23.6
20. 7. 2024 03:00 114 24
20. 7. 2024 02:00 114 24
20. 7. 2024 01:00 114 24
20. 7. 2024 00:00 114 24
19. 7. 2024 23:00 115 24
19. 7. 2024 22:00 115 24
19. 7. 2024 21:00 116 25
19. 7. 2024 20:00 117 25
19. 7. 2024 19:00 118 25
19. 7. 2024 18:00 117 25
19. 7. 2024 17:00 117 25
19. 7. 2024 16:00 117 25

H - water level, Q - discharge
more information

Spytihněv

Date and time (UTC) H (cm) Q (m³/s)
20. 7. 2024 04:00 114 27.2
20. 7. 2024 03:00 109 25
20. 7. 2024 02:00 105 22
20. 7. 2024 01:00 99 19
20. 7. 2024 00:00 100 20
19. 7. 2024 23:00 105 22
19. 7. 2024 22:00 101 20
19. 7. 2024 21:00 97 18
19. 7. 2024 20:00 105 22
19. 7. 2024 19:00 99 19
19. 7. 2024 18:00 99 19
19. 7. 2024 17:00 103 21
19. 7. 2024 16:00 103 21

H - water level, Q - discharge

Kroměříž

Date and time (UTC) H (cm) Q (m³/s)
20. 7. 2024 04:00 143 26.1
20. 7. 2024 03:00 144 27
20. 7. 2024 02:00 143 26
20. 7. 2024 01:00 139 24
20. 7. 2024 00:00 137 23
19. 7. 2024 23:00 136 22
19. 7. 2024 22:00 136 22
19. 7. 2024 21:00 137 23
19. 7. 2024 20:00 136 22
19. 7. 2024 19:00 136 22
19. 7. 2024 18:00 137 23
19. 7. 2024 17:00 137 23
19. 7. 2024 16:00 136 22

H - water level, Q - discharge
more information

Olomouc-Nové Sady tok

Date and time (UTC) H (cm) Q (m³/s)
20. 7. 2024 04:00 103 12.6
20. 7. 2024 03:00 103 13
20. 7. 2024 02:00 104 13
20. 7. 2024 01:00 104 13
20. 7. 2024 00:00 104 13
19. 7. 2024 23:00 104 13
19. 7. 2024 22:00 104 13
19. 7. 2024 21:00 105 13
19. 7. 2024 20:00 105 13
19. 7. 2024 19:00 105 13
19. 7. 2024 18:00 105 13
19. 7. 2024 17:00 105 13
19. 7. 2024 16:00 106 14

H - water level, Q - discharge

Moravičany

Date and time (UTC) H (cm) Q (m³/s)
20. 7. 2024 04:10 77 6.8
20. 7. 2024 04:00 77 7
20. 7. 2024 03:00 77 7
20. 7. 2024 02:00 78 7
20. 7. 2024 01:00 78 7
20. 7. 2024 00:00 78 7
19. 7. 2024 23:00 78 7
19. 7. 2024 22:00 77 7
19. 7. 2024 21:00 78 7
19. 7. 2024 20:00 78 7
19. 7. 2024 19:00 78 7
19. 7. 2024 18:00 79 8
19. 7. 2024 17:00 78 7
19. 7. 2024 16:00 78 7

H - water level, Q - discharge
Source data
Labe Basin Vltava Basin Povodí Moravy ČHMÚ
Po vodě ekologicky, levně a v pohodě
backgroung on backgroung off